Time;durP1;ratioP1;P1;durP2;ratioP2;P2;SDS_P1;SDS_P2;PMS_P1;PMS_P2;Temp;Humidity;BMP_temperature;BMP_pressure;BME280_temperature;BME280_humidity;BME280_pressure;Samples;Min_cycle;Max_cycle;Signal;HPM_P1;HPM_P2
2022/01/17 00:00:15;;;;;;;44.38;18.90;;;;;;;3.42;100.00;102635.41;2569021;30;137652;-38
2022/01/17 00:02:47;;;;;;;51.00;18.58;;;;;;;3.44;100.00;102636.13;2569847;30;137379;-38
2022/01/17 00:05:15;;;;;;;38.78;16.73;;;;;;;3.47;100.00;102642.25;2566069;30;138688;-38
2022/01/17 00:07:43;;;;;;;47.45;18.45;;;;;;;3.43;100.00;102653.31;2568742;30;138124;-38
2022/01/17 00:10:12;;;;;;;39.53;15.98;;;;;;;3.43;100.00;102653.31;2568900;30;137039;-39
2022/01/17 00:12:44;;;;;;;44.80;16.63;;;;;;;3.39;100.00;102656.34;2570526;30;138519;-38
2022/01/17 00:15:26;;;;;;;44.72;17.85;;;;;;;3.40;100.00;102658.06;2568727;30;137122;-38
2022/01/17 00:18:21;;;;;;;46.63;16.63;;;;;;;3.41;100.00;102668.75;2572443;30;140076;-38
2022/01/17 00:20:47;;;;;;;44.10;16.60;;;;;;;3.40;100.00;102666.16;2571784;30;137157;-38
2022/01/17 00:23:16;;;;;;;42.38;18.23;;;;;;;3.45;100.00;102669.38;2565903;30;138427;-38
2022/01/17 00:25:44;;;;;;;46.45;18.00;;;;;;;3.46;100.00;102665.72;2569997;30;137648;-38
2022/01/17 00:28:12;;;;;;;43.17;17.20;;;;;;;3.46;100.00;102668.41;2569009;30;138411;-38
2022/01/17 00:30:40;;;;;;;45.90;18.10;;;;;;;3.42;100.00;102672.28;2569456;30;137608;-38
2022/01/17 00:33:08;;;;;;;43.38;17.58;;;;;;;3.44;100.00;102678.44;2568191;30;137312;-38
2022/01/17 00:35:36;;;;;;;;;;;;;;;3.42;100.00;102680.41;2570549;30;137739;-38
2022/01/17 00:38:12;;;;;;;44.35;17.92;;;;;;;3.44;100.00;102681.13;2568801;30;137333;-38
2022/01/17 00:40:41;;;;;;;47.55;18.17;;;;;;;3.44;100.00;102681.13;2570844;30;138370;-38
2022/01/17 00:43:11;;;;;;;41.58;18.75;;;;;;;3.45;100.00;102682.88;2569503;30;137882;-38
2022/01/17 00:45:41;;;;;;;41.08;17.50;;;;;;;3.49;100.00;102680.78;2569385;30;138008;-38
2022/01/17 00:48:09;;;;;;;48.42;18.65;;;;;;;3.52;100.00;102681.41;2568750;30;138133;-38
2022/01/17 00:50:38;;;;;;;43.35;17.88;;;;;;;3.52;100.00;102673.31;2568730;30;137436;-38
2022/01/17 00:53:08;;;;;;;48.22;18.88;;;;;;;3.53;100.00;102666.94;2569749;30;141506;-39
2022/01/17 00:55:38;;;;;;;42.60;17.65;;;;;;;3.52;100.00;102667.91;2568736;30;137870;-41
2022/01/17 00:58:06;;;;;;;43.47;17.95;;;;;;;3.55;100.00;102659.56;2567947;30;139148;-42
2022/01/17 01:00:35;;;;;;;47.67;18.25;;;;;;;3.54;100.00;102668.66;2568120;30;137445;-40
2022/01/17 01:03:04;;;;;;;49.13;18.55;;;;;;;3.51;100.00;102666.19;2569062;30;139073;-41
2022/01/17 01:05:33;;;;;;;53.47;18.83;;;;;;;3.59;100.00;102671.00;2568348;30;138236;-40
2022/01/17 01:08:01;;;;;;;46.47;18.98;;;;;;;3.55;100.00;102670.38;2568193;30;138672;-41
2022/01/17 01:10:29;;;;;;;;;;;;;;;3.54;100.00;102679.44;2569251;30;137050;-41
2022/01/17 01:12:58;;;;;;;47.30;18.77;;;;;;;3.55;100.00;102686.56;2569081;30;137283;-41
2022/01/17 01:18:30;;;;;;;51.30;18.75;;;;;;;3.58;100.00;102689.03;2567328;30;139040;-40
2022/01/17 01:29:17;;;;;;;59.38;21.23;;;;;;;3.64;100.00;102681.41;2565482;30;139106;-41
2022/01/17 01:31:50;;;;;;;;;;;;;;;3.64;100.00;102674.19;2567976;30;137408;-41
2022/01/17 01:34:25;;;;;;;55.67;20.75;;;;;;;3.67;100.00;102662.28;2568491;30;138879;-41
2022/01/17 01:36:53;;;;;;;56.05;20.88;;;;;;;3.66;100.00;102663.25;2567670;30;137208;-40
2022/01/17 01:39:24;;;;;;;47.42;20.02;;;;;;;3.64;100.00;102659.81;2568150;30;138290;-41
2022/01/17 01:41:52;;;;;;;58.15;23.10;;;;;;;3.64;100.00;102670.63;2568924;30;138507;-41
2022/01/17 01:44:22;;;;;;;58.20;21.48;;;;;;;3.65;100.00;102673.22;2569155;30;137376;-41
2022/01/17 01:46:53;;;;;;;59.13;21.20;;;;;;;3.64;100.00;102682.28;2567860;30;138637;-41
2022/01/17 01:49:23;;;;;;;55.85;21.05;;;;;;;3.67;100.00;102684.75;2567904;30;137877;-41
2022/01/17 01:51:51;;;;;;;52.85;21.08;;;;;;;3.65;100.00;102693.94;2568453;30;137802;-41
2022/01/17 01:54:19;;;;;;;62.60;21.65;;;;;;;3.63;100.00;102695.91;2566603;30;138849;-41
2022/01/17 01:56:50;;;;;;;58.33;22.98;;;;;;;3.69;100.00;102711.59;2567379;30;137753;-41
2022/01/17 01:59:22;;;;;;;61.72;23.20;;;;;;;3.65;100.00;102716.41;2568442;30;138301;-40
2022/01/17 02:01:51;;;;;;;63.30;23.40;;;;;;;3.64;100.00;102708.41;2568199;30;137495;-40
2022/01/17 02:04:19;;;;;;;55.67;20.23;;;;;;;3.65;100.00;102705.59;2567067;30;138352;-41
2022/01/17 02:06:47;;;;;;;60.30;22.63;;;;;;;3.64;100.00;102701.19;2569034;30;137041;-41
2022/01/17 02:09:15;;;;;;;;;;;;;;;3.69;100.00;102687.31;2569145;30;138429;-41
2022/01/17 02:11:43;;;;;;;51.75;19.95;;;;;;;3.71;100.00;102685.34;2568223;30;137032;-41
2022/01/17 02:14:12;;;;;;;60.08;21.08;;;;;;;3.70;100.00;102686.31;2568439;30;139123;-41
2022/01/17 02:16:41;;;;;;;53.58;21.17;;;;;;;3.67;100.00;102692.84;2567933;30;138170;-41
2022/01/17 02:19:09;;;;;;;57.05;21.77;;;;;;;3.67;100.00;102681.16;2568309;30;139009;-41
2022/01/17 02:21:47;;;;;;;50.72;20.35;;;;;;;3.70;100.00;102691.72;2568055;30;138596;-41
2022/01/17 02:24:18;;;;;;;51.85;21.15;;;;;;;3.70;100.00;102692.59;2567352;30;137751;-41
2022/01/17 02:26:50;;;;;;;54.45;19.40;;;;;;;3.74;100.00;102682.44;2568747;30;137632;-41
2022/01/17 02:29:18;;;;;;;54.28;19.90;;;;;;;3.70;100.00;102681.78;2568821;30;136929;-40
2022/01/17 02:31:47;;;;;;;52.50;20.27;;;;;;;3.72;100.00;102674.44;2568805;30;138376;-41
2022/01/17 02:34:15;;;;;;;55.10;21.13;;;;;;;3.74;100.00;102677.88;2567145;30;137142;-41
2022/01/17 02:36:43;;;;;;;53.28;20.55;;;;;;;3.76;100.00;102680.47;2565816;30;137611;-41
2022/01/17 02:39:12;;;;;;;;;;;;;;;3.78;100.00;102678.50;2568199;30;138246;-40
2022/01/17 02:41:42;;;;;;;50.47;19.35;;;;;;;3.81;100.00;102678.25;2568465;30;136959;-41
2022/01/17 02:44:11;;;;;;;56.50;20.80;;;;;;;3.78;100.00;102689.28;2567577;30;139533;-41
2022/01/17 02:46:39;;;;;;;69.72;23.65;;;;;;;3.84;100.00;102701.44;2567699;30;137659;-40
2022/01/17 02:49:08;;;;;;;56.17;21.90;;;;;;;3.79;100.00;102693.72;2569006;30;136827;-40
2022/01/17 02:51:36;;;;;;;60.78;23.33;;;;;;;3.82;100.00;102690.75;2567817;30;137483;-41
2022/01/17 02:54:04;;;;;;;;;;;;;;;3.78;100.00;102691.13;2568649;30;137523;-41
2022/01/17 02:56:32;;;;;;;58.05;21.98;;;;;;;3.81;100.00;102682.78;2567259;30;137058;-41
2022/01/17 02:59:00;;;;;;;62.63;23.05;;;;;;;3.81;100.00;102680.94;2567519;30;138454;-41
2022/01/17 03:01:29;;;;;;;64.38;25.25;;;;;;;3.84;100.00;102683.41;2567470;30;136710;-41
2022/01/17 03:03:58;;;;;;;64.10;23.80;;;;;;;3.86;100.00;102675.19;2567361;30;138325;-41
2022/01/17 03:06:27;;;;;;;68.40;24.85;;;;;;;3.85;100.00;102674.31;2567227;30;137528;-41
2022/01/17 03:08:55;;;;;;;66.65;24.27;;;;;;;3.86;100.00;102667.94;2567825;30;138217;-41
2022/01/17 03:11:24;;;;;;;;;;;;;;;3.84;100.00;102660.91;2567646;30;137733;-41
2022/01/17 03:13:52;;;;;;;59.05;22.63;;;;;;;3.90;100.00;102657.75;2568468;30;138617;-41
2022/01/17 03:16:33;;;;;;;;;;;;;;;3.90;100.00;102644.25;2568844;30;137613;-41
2022/01/17 03:19:01;;;;;;;55.45;21.75;;;;;;;3.88;100.00;102657.03;2565461;30;138255;-41
2022/01/17 03:21:32;;;;;;;65.45;23.98;;;;;;;3.86;100.00;102667.94;2566441;30;137464;-41
2022/01/17 03:24:00;;;;;;;55.75;21.75;;;;;;;3.82;100.00;102688.06;2567908;30;138272;-41
2022/01/17 03:26:30;;;;;;;59.55;23.63;;;;;;;3.86;100.00;102692.25;2568519;30;137545;-41
2022/01/17 03:29:00;;;;;;;60.72;24.17;;;;;;;3.85;100.00;102682.41;2568609;30;140025;-41
2022/01/17 03:31:28;;;;;;;61.17;22.73;;;;;;;3.84;100.00;102682.53;2567237;30;136921;-41
2022/01/17 03:33:56;;;;;;;60.33;23.98;;;;;;;3.91;100.00;102682.91;2567526;30;137583;-41
2022/01/17 03:36:24;;;;;;;68.72;24.00;;;;;;;3.91;100.00;102678.38;2566098;30;136854;-41
2022/01/17 03:38:53;;;;;;;;;;;;;;;3.90;100.00;102676.66;2565756;30;136827;-41
2022/01/17 03:41:21;;;;;;;;;;;;;;;3.92;100.00;102692.72;2568145;30;137172;-41
2022/01/17 03:43:49;;;;;;;51.63;21.25;;;;;;;3.92;100.00;102684.63;2567473;30;139051;-41
2022/01/17 03:46:17;;;;;;;;;;;;;;;3.94;100.00;102693.47;2565699;30;137696;-41
2022/01/17 03:48:45;;;;;;;65.25;23.70;;;;;;;3.89;100.00;102689.28;2569608;30;138495;-41
2022/01/17 03:51:13;;;;;;;;;;;;;;;3.89;100.00;102686.59;2567287;30;136766;-41
2022/01/17 03:53:41;;;;;;;64.18;22.80;;;;;;;3.88;100.00;102690.28;2568557;30;138597;-41
2022/01/17 03:56:09;;;;;;;;;;;;;;;3.91;100.00;102699.09;2567732;30;138515;-41
2022/01/17 03:58:37;;;;;;;53.88;21.25;;;;;;;3.85;100.00;102693.22;2566356;30;137752;-41
2022/01/17 04:01:06;;;;;;;;;;;;;;;3.88;100.00;102684.03;2567701;30;137449;-41
2022/01/17 04:03:34;;;;;;;53.53;21.42;;;;;;;3.88;100.00;102689.44;2567005;30;137389;-41
2022/01/17 04:06:02;;;;;;;53.00;21.02;;;;;;;3.84;100.00;102699.59;2567426;30;137504;-41
2022/01/17 04:08:30;;;;;;;;;;;;;;;3.80;100.00;102700.84;2567312;30;138473;-41
2022/01/17 04:10:58;;;;;;;53.90;21.30;;;;;;;3.78;100.00;102708.19;2567821;30;136937;-41
2022/01/17 04:13:26;;;;;;;58.00;21.88;;;;;;;3.77;100.00;102703.78;2568366;30;138401;-41
2022/01/17 04:15:54;;;;;;;49.25;21.08;;;;;;;3.79;100.00;102696.41;2568030;30;136923;-41
2022/01/17 04:18:23;;;;;;;;;;;;;;;3.75;100.00;102694.94;2568271;30;138257;-41
2022/01/17 04:20:53;;;;;;;47.63;19.55;;;;;;;3.72;100.00;102700.59;2568558;30;137125;-41
2022/01/17 04:23:21;;;;;;;46.65;20.42;;;;;;;3.77;100.00;102711.00;2568410;30;136744;-41
2022/01/17 04:25:49;;;;;;;49.05;20.70;;;;;;;3.82;100.00;102706.97;2567907;30;136813;-41
2022/01/17 04:28:17;;;;;;;57.60;21.92;;;;;;;3.82;100.00;102715.06;2567597;30;137881;-41
2022/01/17 04:30:45;;;;;;;50.90;22.08;;;;;;;3.82;100.00;102722.28;2568672;30;136817;-41
2022/01/17 04:33:14;;;;;;;57.25;21.92;;;;;;;3.79;100.00;102723.41;2568524;30;138353;-41
2022/01/17 04:35:43;;;;;;;51.70;21.35;;;;;;;3.82;100.00;102720.47;2565129;30;137482;-41
2022/01/17 04:38:15;;;;;;;55.38;21.50;;;;;;;3.83;100.00;102721.31;2566452;30;138297;-41
2022/01/17 04:40:47;;;;;;;49.38;19.98;;;;;;;3.85;100.00;102730.19;2567033;30;137601;-41
2022/01/17 04:43:32;;;;;;;55.40;21.98;;;;;;;3.81;100.00;102725.97;2567950;30;138412;-41
2022/01/17 04:46:00;;;;;;;59.17;21.90;;;;;;;3.86;100.00;102718.41;2567663;30;137498;-41
2022/01/17 04:48:28;;;;;;;;;;;;;;;3.82;100.00;102727.69;2567327;30;138040;-41
2022/01/17 04:50:56;;;;;;;49.95;20.73;;;;;;;3.76;100.00;102725.47;2566608;30;137054;-41
2022/01/17 04:53:25;;;;;;;46.60;19.95;;;;;;;3.77;100.00;102719.09;2567948;30;139364;-41
2022/01/17 04:55:52;;;;;;;45.70;19.80;;;;;;;3.77;100.00;102719.09;2566597;30;137542;-41
2022/01/17 04:58:21;;;;;;;46.85;20.17;;;;;;;3.77;100.00;102721.81;2567646;30;137348;-41
2022/01/17 05:00:49;;;;;;;48.05;19.70;;;;;;;3.77;100.00;102714.59;2567988;30;137845;-41
2022/01/17 05:03:20;;;;;;;49.05;20.00;;;;;;;3.72;100.00;102730.28;2567624;30;138220;-41
2022/01/17 05:05:53;;;;;;;50.65;20.95;;;;;;;3.74;100.00;102728.31;2568445;30;137587;-40
2022/01/17 05:08:21;;;;;;;48.08;20.95;;;;;;;3.70;100.00;102716.91;2568263;30;139207;-41
2022/01/17 05:10:53;;;;;;;46.08;19.27;;;;;;;3.67;100.00;102721.66;2566550;30;137540;-40
2022/01/17 05:13:27;;;;;;;47.97;19.55;;;;;;;3.64;100.00;102719.22;2568108;30;137852;-41
2022/01/17 05:16:34;;;;;;;47.08;19.50;;;;;;;3.62;100.00;102727.44;2569069;30;138331;-41
2022/01/17 05:21:36;;;;;;;42.47;18.92;;;;;;;3.54;100.00;102738.84;2565860;30;137175;-41
2022/01/17 05:24:04;;;;;;;;;;;;;;;3.52;100.00;102746.19;2568657;30;138223;-41
2022/01/17 05:26:32;;;;;;;50.75;19.30;;;;;;;3.49;100.00;102754.53;2568510;30;138745;-41
2022/01/17 05:28:59;;;;;;;;;;;;;;;3.48;100.00;102758.22;2568904;30;138448;-41
2022/01/17 05:31:27;;;;;;;46.67;17.95;;;;;;;3.49;100.00;102769.84;2564979;30;137492;-41
2022/01/17 05:33:55;;;;;;;;;;;;;;;3.47;100.00;102767.28;2569234;30;138783;-41
2022/01/17 05:36:23;;;;;;;53.30;19.90;;;;;;;3.49;100.00;102759.06;2569237;30;137032;-41
2022/01/17 05:38:54;;;;;;;51.25;20.88;;;;;;;3.53;100.00;102764.09;2569055;30;137227;-41
2022/01/17 05:41:22;;;;;;;43.13;19.85;;;;;;;3.53;100.00;102766.81;2567627;30;137507;-41
2022/01/17 05:43:50;;;;;;;46.17;19.95;;;;;;;3.55;100.00;102761.28;2568920;30;137367;-41
2022/01/17 05:46:18;;;;;;;50.33;21.83;;;;;;;3.54;100.00;102756.84;2568487;30;138189;-41
2022/01/17 05:48:46;;;;;;;;;;;;;;;3.48;100.00;102750.09;2568873;30;138867;-41
2022/01/17 05:51:18;;;;;;;45.53;18.52;;;;;;;3.51;100.00;102757.97;2568334;30;137070;-41
2022/01/17 05:53:45;;;;;;;;;;;;;;;3.49;100.00;102754.53;2568479;30;138199;-41
2022/01/17 05:56:13;;;;;;;46.63;20.08;;;;;;;3.48;100.00;102736.63;2566721;30;137513;-41
2022/01/17 05:58:41;;;;;;;41.28;18.60;;;;;;;3.47;100.00;102745.69;2568883;30;138401;-41
2022/01/17 06:01:10;;;;;;;;;;;;;;;3.46;100.00;102735.88;2568404;30;137776;-41
2022/01/17 06:03:38;;;;;;;48.60;20.90;;;;;;;3.47;100.00;102731.31;2567170;30;138928;-41
2022/01/17 06:06:06;;;;;;;;;;;;;;;3.51;100.00;102739.06;2567832;30;137549;-41
2022/01/17 06:08:34;;;;;;;45.97;18.23;;;;;;;3.48;100.00;102747.41;2568411;30;139216;-41
2022/01/17 06:11:02;;;;;;;41.40;18.88;;;;;;;3.49;100.00;102759.94;2567522;30;137088;-41
2022/01/17 06:13:30;;;;;;;;;;;;;;;3.53;100.00;102758.69;2565606;30;137365;-41
2022/01/17 06:15:58;;;;;;;41.35;18.02;;;;;;;3.53;100.00;102752.44;2568273;30;138046;-41
2022/01/17 06:18:26;;;;;;;;;;;;;;;3.53;100.00;102761.41;2567383;30;136843;-41
2022/01/17 06:20:54;;;;;;;44.25;17.67;;;;;;;3.57;100.00;102762.00;2567636;30;137968;-41
2022/01/17 06:23:24;;;;;;;40.25;18.42;;;;;;;3.59;100.00;102766.31;2568033;30;138463;-41
2022/01/17 06:25:52;;;;;;;38.00;18.15;;;;;;;3.55;100.00;102769.38;2567185;30;138245;-41
2022/01/17 06:28:20;;;;;;;45.58;18.42;;;;;;;3.56;100.00;102765.69;2567367;30;138401;-41
2022/01/17 06:30:49;;;;;;;39.58;18.02;;;;;;;3.60;100.00;102762.66;2567095;30;136773;-41
2022/01/17 06:33:17;;;;;;;41.67;18.05;;;;;;;3.59;100.00;102774.41;2568329;30;139379;-40
2022/01/17 06:35:45;;;;;;;43.20;18.90;;;;;;;3.64;100.00;102773.19;2567673;30;137628;-41
2022/01/17 06:38:13;;;;;;;42.55;19.17;;;;;;;3.58;100.00;102759.19;2566162;30;138508;-41
2022/01/17 06:40:41;;;;;;;40.45;16.88;;;;;;;3.57;100.00;102762.88;2567711;30;136756;-41
2022/01/17 06:43:10;;;;;;;42.88;17.45;;;;;;;3.53;100.00;102756.00;2566948;30;138756;-41
2022/01/17 06:45:38;;;;;;;40.05;17.48;;;;;;;3.55;100.00;102748.66;2568008;30;138514;-41
2022/01/17 06:48:06;;;;;;;40.67;17.45;;;;;;;3.53;100.00;102750.59;2567821;30;136791;-41
2022/01/17 06:50:35;;;;;;;;;;;;;;;3.54;100.00;102746.94;2569053;30;137038;-41
2022/01/17 12:54:53;;;;;;;;;;;;;;;5.31;100.00;102922.19;244166;38;125424120;31
2022/01/17 12:57:24;;;;;;;21.08;9.85;;;;;;;5.35;100.00;102911.97;2569066;30;137372;-41
2022/01/17 12:59:52;;;;;;;24.70;9.93;;;;;;;5.34;100.00;102921.06;2569476;30;137337;-41
2022/01/17 13:02:20;;;;;;;;;;;;;;;5.36;100.00;102929.91;2567666;30;138544;-41
2022/01/17 13:04:49;;;;;;;20.58;9.48;;;;;;;5.36;100.00;102932.63;2566706;30;137106;-41
2022/01/17 13:07:17;;;;;;;24.85;9.93;;;;;;;5.43;100.00;102924.88;2566232;30;138459;-41
2022/01/17 13:09:46;;;;;;;28.08;10.35;;;;;;;5.41;100.00;102929.56;2568214;30;137545;-41
2022/01/17 13:12:15;;;;;;;25.33;10.45;;;;;;;5.41;100.00;102935.81;2567358;30;137479;-41
2022/01/17 13:14:44;;;;;;;29.77;11.02;;;;;;;5.41;100.00;102934.97;2566529;30;138042;-41
2022/01/17 13:17:12;;;;;;;22.80;10.45;;;;;;;5.41;100.00;102930.41;2567454;30;140568;-41
2022/01/17 13:19:40;;;;;;;27.67;11.23;;;;;;;5.42;100.00;102940.25;2566997;30;138249;-41
2022/01/17 13:22:08;;;;;;;19.58;10.43;;;;;;;5.47;100.00;102929.03;2567855;30;138577;-41
2022/01/17 13:24:37;;;;;;;21.80;9.70;;;;;;;5.45;100.00;102931.88;2568800;30;137698;-41
2022/01/17 13:27:09;;;;;;;23.58;9.88;;;;;;;5.44;100.00;102926.59;2569043;30;138189;-41
2022/01/17 13:29:39;;;;;;;23.35;10.35;;;;;;;5.50;100.00;102926.06;2568516;30;137509;-40
2022/01/17 13:32:12;;;;;;;23.67;10.00;;;;;;;5.42;100.00;102915.03;2567621;30;138469;-41
2022/01/17 13:34:41;;;;;;;22.35;9.25;;;;;;;5.43;100.00;102916.75;2568293;30;138685;-40
2022/01/17 13:37:12;;;;;;;26.30;9.60;;;;;;;5.48;100.00;102922.63;2568135;30;138327;-40
2022/01/17 13:39:55;;;;;;;24.67;9.70;;;;;;;5.52;100.00;102909.72;2564464;30;137511;-41
2022/01/17 13:42:53;;;;;;;19.80;8.30;;;;;;;5.54;100.00;102932.94;2567478;30;138012;-41
2022/01/17 13:45:36;;;;;;;20.38;9.10;;;;;;;5.54;100.00;102949.19;2568984;30;138322;-41
2022/01/17 13:48:11;;;;;;;19.75;9.35;;;;;;;5.60;100.00;102956.84;2568566;30;138353;-41
2022/01/17 13:50:53;;;;;;;18.63;8.32;;;;;;;5.67;100.00;102945.47;2567993;30;137010;-41
2022/01/17 13:53:27;;;;;;;17.38;8.27;;;;;;;5.63;100.00;102933.19;2567864;30;138572;-41
2022/01/17 13:55:58;;;;;;;17.80;8.82;;;;;;;5.61;100.00;102934.19;2568756;30;137637;-41
2022/01/17 13:58:29;;;;;;;21.58;9.05;;;;;;;5.65;100.00;102936.63;2565259;30;139149;-41
2022/01/17 14:01:00;;;;;;;24.73;8.55;;;;;;;5.61;100.00;102947.72;2567706;30;138402;-41
2022/01/17 14:03:30;;;;;;;22.48;9.38;;;;;;;5.66;100.00;102922.94;2565915;30;137413;-41
2022/01/17 14:06:07;;;;;;;20.92;8.38;;;;;;;5.68;100.00;102920.97;2567048;30;138429;-41
2022/01/17 14:08:48;;;;;;;23.23;9.10;;;;;;;5.71;100.00;102912.59;2568166;30;138500;-40
2022/01/17 14:11:22;;;;;;;25.15;9.27;;;;;;;5.70;100.00;102908.19;2568999;30;137798;-41
2022/01/17 14:13:53;;;;;;;24.17;9.27;;;;;;;5.70;100.00;102904.59;2568076;30;137365;-41
2022/01/17 14:16:28;;;;;;;25.65;9.27;;;;;;;5.74;100.00;102901.50;2568141;30;137784;-41
2022/01/17 14:19:07;;;;;;;17.65;8.60;;;;;;;5.73;100.00;102907.91;2567882;30;138371;-41
2022/01/17 14:22:02;;;;;;;19.77;8.85;;;;;;;5.72;100.00;102902.63;2568111;30;138177;-41
2022/01/17 14:24:43;;;;;;;24.38;8.65;;;;;;;5.72;100.00;102917.03;2567857;30;139131;-41
2022/01/17 14:27:18;;;;;;;21.35;8.52;;;;;;;5.73;100.00;102923.28;2568580;30;139463;-41
2022/01/17 14:29:55;;;;;;;17.30;7.70;;;;;;;5.72;100.00;102929.69;2568762;30;138264;-40
2022/01/17 14:32:23;;;;;;;22.15;7.82;;;;;;;5.70;100.00;102934.38;2567513;30;138048;-41
2022/01/17 14:34:52;;;;;;;24.42;8.20;;;;;;;5.67;100.00;102943.63;2566391;30;138139;-40
2022/01/17 14:37:32;;;;;;;19.45;8.23;;;;;;;5.71;100.00;102946.94;2567810;30;136878;-41
2022/01/17 14:40:06;;;;;;;21.13;7.88;;;;;;;5.71;100.00;102941.53;2568699;30;138292;-41
2022/01/17 14:42:41;;;;;;;21.10;7.47;;;;;;;5.72;100.00;102940.53;2565284;30;138287;-41
2022/01/17 14:45:17;;;;;;;19.27;7.43;;;;;;;5.75;100.00;102946.56;2568555;30;139122;-41
2022/01/17 14:47:48;;;;;;;21.33;6.93;;;;;;;5.75;100.00;102940.28;2566063;30;138050;-41
2022/01/17 14:50:17;;;;;;;16.05;7.15;;;;;;;5.80;100.00;102943.44;2567963;30;137385;-41
2022/01/17 14:52:47;;;;;;;18.95;6.90;;;;;;;5.82;100.00;102944.19;2568432;30;138128;-41
2022/01/17 15:01:16;;;;;;;16.92;6.90;;;;;;;5.79;100.00;102971.53;2568203;30;137485;-41
2022/01/17 15:03:44;;;;;;;20.05;7.65;;;;;;;5.75;100.00;102980.91;2567477;30;138015;-41
2022/01/17 15:06:12;;;;;;;;;;;;;;;5.74;100.00;102973.78;2568620;30;138308;-41
2022/01/17 15:08:41;;;;;;;21.58;6.60;;;;;;;5.79;100.00;102989.66;2567716;30;138077;-41
2022/01/17 15:11:09;;;;;;;31.80;7.03;;;;;;;5.80;100.00;102994.09;2566714;30;137054;-41
2022/01/17 15:13:36;;;;;;;;;;;;;;;5.78;100.00;102996.91;2566495;30;137792;-41
2022/01/17 15:16:05;;;;;;;24.20;7.22;;;;;;;5.78;100.00;102993.34;2567811;30;137444;-41
2022/01/17 15:18:33;;;;;;;17.17;6.55;;;;;;;5.80;100.00;103008.47;2568393;30;137491;-41
2022/01/17 15:21:00;;;;;;;;;;;;;;;5.81;100.00;103018.31;2568996;30;138198;-41
2022/01/17 15:23:28;;;;;;;14.77;5.43;;;;;;;5.77;100.00;103024.97;2568687;30;137883;-41
2022/01/17 15:25:59;;;;;;;;;;;;;;;5.83;100.00;103029.88;2569340;30;139304;-41
2022/01/17 15:28:27;;;;;;;14.75;5.15;;;;;;;5.85;100.00;103017.09;2568829;30;137042;-41
2022/01/17 15:30:55;;;;;;;18.50;5.72;;;;;;;5.84;100.00;103009.97;2567860;30;137665;-41
2022/01/17 15:33:25;;;;;;;18.45;5.60;;;;;;;5.87;100.00;103009.69;2568557;30;137922;-41
2022/01/17 15:35:53;;;;;;;20.38;5.15;;;;;;;5.91;100.00;103013.00;2569589;30;138208;-41
2022/01/17 15:38:22;;;;;;;18.92;5.45;;;;;;;5.92;100.00;103016.59;2567478;30;137450;-41
2022/01/17 15:40:52;;;;;;;25.58;5.78;;;;;;;5.93;100.00;103037.28;2569473;30;137012;-41
2022/01/17 15:43:21;;;;;;;17.63;4.60;;;;;;;5.89;100.00;103031.22;2569369;30;137018;-41
2022/01/17 15:45:49;;;;;;;19.20;5.47;;;;;;;5.86;100.00;103034.19;2568067;30;136764;-41
2022/01/17 15:48:20;;;;;;;20.95;5.30;;;;;;;5.86;100.00;103023.38;2568137;30;137342;-40
2022/01/17 15:50:50;;;;;;;18.60;4.53;;;;;;;5.94;100.00;103039.00;2568972;30;138483;-41
2022/01/17 15:53:18;;;;;;;17.95;4.60;;;;;;;5.88;100.00;103030.38;2565237;30;137243;-41
2022/01/17 15:55:47;;;;;;;20.25;4.97;;;;;;;5.92;100.00;103030.13;2567819;30;136905;-41
2022/01/17 15:58:16;;;;;;;15.40;3.70;;;;;;;5.92;100.00;103017.44;2567461;30;137718;-41
2022/01/17 16:00:45;;;;;;;15.38;4.65;;;;;;;5.96;100.00;103028.88;2567845;30;138136;-41
2022/01/17 16:03:14;;;;;;;23.73;5.30;;;;;;;5.94;100.00;103047.13;2568379;30;137128;-41
2022/01/17 16:05:44;;;;;;;18.50;4.20;;;;;;;5.96;100.00;103058.69;2568269;30;137812;-41
2022/01/17 16:08:12;;;;;;;19.50;4.78;;;;;;;5.93;100.00;103056.25;2568044;30;136882;-41
2022/01/17 16:10:46;;;;;;;18.95;4.25;;;;;;;5.93;100.00;103054.38;2568850;30;137336;-41
2022/01/17 16:13:18;;;;;;;15.40;3.58;;;;;;;5.99;100.00;103061.13;2568839;30;136743;-41
2022/01/17 16:15:48;;;;;;;21.33;4.65;;;;;;;5.98;100.00;103056.72;2568307;30;138361;-41
2022/01/17 16:18:33;;;;;;;22.02;4.50;;;;;;;5.98;100.00;103060.28;2568503;30;138014;-41
2022/01/17 16:21:01;;;;;;;;;;;;;;;5.99;100.00;103067.44;2568088;30;139264;-41
2022/01/17 16:23:29;;;;;;;22.63;4.07;;;;;;;5.97;100.00;103069.41;2568138;30;137248;-41
2022/01/17 16:25:57;;;;;;;;;;;;;;;5.94;100.00;103082.34;2568225;30;139122;-41
2022/01/17 16:28:25;;;;;;;17.35;3.92;;;;;;;5.91;100.00;103086.16;2566918;30;137942;-41
2022/01/17 16:30:53;;;;;;;;;;;;;;;5.88;100.00;103081.00;2567654;30;138618;-41
2022/01/17 16:33:24;;;;;;;14.55;3.95;;;;;;;5.89;100.00;103074.59;2567532;30;137354;-41
2022/01/17 16:36:03;;;;;;;19.00;3.70;;;;;;;5.87;100.00;103069.31;2567127;30;137396;-41
2022/01/17 16:38:36;;;;;;;16.48;4.05;;;;;;;5.90;100.00;103069.06;2567543;30;137408;-40
2022/01/17 16:41:04;;;;;;;22.70;4.47;;;;;;;5.89;100.00;103061.91;2566946;30;138282;-40
2022/01/17 16:43:31;;;;;;;;;;;;;;;5.91;100.00;103067.19;2569628;30;137431;-40
2022/01/17 16:45:59;;;;;;;13.05;3.28;;;;;;;5.87;100.00;103082.84;2568554;30;138244;-40
2022/01/17 16:48:28;;;;;;;;;;;;;;;5.87;100.00;103085.56;2569011;30;137072;-40
2022/01/17 16:50:56;;;;;;;13.25;3.55;;;;;;;5.83;100.00;103075.94;2568840;30;137017;-41
2022/01/17 16:53:24;;;;;;;;;;;;;;;5.88;100.00;103068.31;2568954;30;137578;-40
2022/01/17 16:55:52;;;;;;;12.10;3.50;;;;;;;5.86;100.00;103067.59;2569665;30;138289;-40
2022/01/17 16:58:22;;;;;;;;;;;;;;;5.87;100.00;103076.56;2566995;30;137084;-40
2022/01/17 17:00:54;;;;;;;18.08;3.53;;;;;;;5.87;100.00;103080.16;2567494;30;137173;-40
2022/01/17 17:03:22;;;;;;;;;;;;;;;5.88;100.00;103092.72;2566615;30;137726;-40
2022/01/17 17:05:50;;;;;;;16.55;3.20;;;;;;;5.87;100.00;103090.09;2568438;30;138967;-40
2022/01/17 17:08:17;;;;;;;;;;;;;;;5.87;100.00;103090.97;2569190;30;138614;-40
2022/01/17 17:10:45;;;;;;;19.67;4.00;;;;;;;5.88;100.00;103086.41;2566528;30;137902;-40
2022/01/17 17:13:13;;;;;;;;;;;;;;;5.91;100.00;103091.56;2566634;30;137441;-40
2022/01/17 17:15:42;;;;;;;14.80;3.28;;;;;;;5.91;100.00;103105.13;2567725;30;138537;-40
2022/01/17 17:18:10;;;;;;;13.95;3.53;;;;;;;5.87;100.00;103109.94;2568061;30;137599;-40
2022/01/17 17:20:40;;;;;;;23.35;3.70;;;;;;;5.94;100.00;103120.28;2567167;30;137457;-40
2022/01/17 17:23:08;;;;;;;16.25;3.60;;;;;;;5.96;100.00;103111.03;2568286;30;136787;-40
2022/01/17 17:25:36;;;;;;;13.32;3.13;;;;;;;5.92;100.00;103096.00;2566736;30;138034;-40
2022/01/17 17:28:05;;;;;;;18.58;3.70;;;;;;;5.97;100.00;103092.94;2568129;30;137158;-40
2022/01/17 17:30:33;;;;;;;16.58;3.78;;;;;;;5.96;100.00;103083.06;2568109;30;138407;-40
2022/01/17 17:33:01;;;;;;;16.17;3.22;;;;;;;5.92;100.00;103097.88;2568916;30;138554;-40
2022/01/17 17:35:32;;;;;;;20.17;3.50;;;;;;;5.88;100.00;103106.25;2566395;30;138352;-40
2022/01/17 17:38:00;;;;;;;17.77;3.58;;;;;;;5.92;100.00;103108.72;2568220;30;136679;-40
2022/01/17 17:40:29;;;;;;;19.95;3.30;;;;;;;5.87;100.00;103103.66;2565979;30;138191;-40
2022/01/17 17:42:57;;;;;;;20.58;3.65;;;;;;;5.89;100.00;103120.66;2568611;30;137021;-40
2022/01/17 17:45:26;;;;;;;20.60;3.88;;;;;;;5.92;100.00;103116.84;2567927;30;138138;-40
2022/01/17 17:47:54;;;;;;;13.43;3.30;;;;;;;5.87;100.00;103123.50;2565367;30;137258;-40
2022/01/17 17:50:24;;;;;;;21.40;3.53;;;;;;;5.86;100.00;103129.91;2568167;30;138115;-40